createdAt,value
2018-07-10T00:00:19.640Z,21.29
2018-07-10T00:01:19.387Z,21.37
2018-07-10T00:02:19.647Z,21.33
2018-07-10T00:03:19.676Z,21.32
2018-07-10T00:04:19.128Z,21.24
2018-07-10T00:05:19.642Z,21.32
2018-07-10T00:06:19.648Z,21.24
2018-07-10T00:07:19.390Z,21.25
2018-07-10T00:08:19.411Z,21.21
2018-07-10T00:09:19.393Z,21.21
2018-07-10T00:10:19.662Z,21.2
2018-07-10T00:11:19.144Z,21.21
2018-07-10T00:12:20.792Z,21.12
2018-07-10T00:13:19.407Z,21.11
2018-07-10T00:14:19.404Z,21.12
2018-07-10T00:15:19.677Z,21.06
2018-07-10T00:16:19.437Z,20.97
2018-07-10T00:17:20.481Z,20.95
2018-07-10T00:18:19.408Z,21.03
2018-07-10T00:19:19.166Z,21.03
2018-07-10T00:20:19.429Z,20.99
2018-07-10T00:21:19.416Z,20.99
2018-07-10T00:22:19.419Z,20.96
2018-07-10T00:23:19.181Z,20.99
2018-07-10T00:24:19.177Z,20.93
2018-07-10T00:25:19.165Z,20.92
2018-07-10T00:26:19.686Z,21
2018-07-10T00:27:19.188Z,21
2018-07-10T00:28:19.192Z,20.99
2018-07-10T00:29:19.704Z,21.02
2018-07-10T00:30:19.443Z,21.02
2018-07-10T00:31:19.688Z,21
2018-07-10T00:32:19.492Z,21.03
2018-07-10T00:33:19.188Z,20.96
2018-07-10T00:34:19.464Z,21.02
2018-07-10T00:35:19.736Z,20.95
2018-07-10T00:36:19.701Z,21.02
2018-07-10T00:37:19.463Z,21.02
2018-07-10T00:38:19.727Z,20.97
2018-07-10T00:39:19.739Z,21
2018-07-10T00:40:19.465Z,21.02
2018-07-10T00:41:19.470Z,21
2018-07-10T00:42:20.855Z,20.95
2018-07-10T00:43:19.524Z,20.97
2018-07-10T00:44:19.725Z,20.92
2018-07-10T00:45:19.737Z,20.96
2018-07-10T00:46:19.731Z,20.96
2018-07-10T00:47:19.726Z,20.95
2018-07-10T00:48:19.733Z,20.88
2018-07-10T00:49:19.476Z,20.87
2018-07-10T00:50:19.224Z,20.9
2018-07-10T00:51:19.484Z,20.92
2018-07-10T00:52:19.489Z,20.93
2018-07-10T00:53:19.485Z,20.85
2018-07-10T00:54:19.482Z,20.88
2018-07-10T00:55:19.488Z,20.85
2018-07-10T00:56:19.744Z,20.9
2018-07-10T00:57:19.761Z,20.88
2018-07-10T00:58:19.493Z,20.85
2018-07-10T00:59:19.505Z,20.87
2018-07-10T01:00:19.489Z,20.9
2018-07-10T01:01:19.507Z,20.88
2018-07-10T01:02:19.750Z,20.82
2018-07-10T01:03:19.750Z,20.84
2018-07-10T01:04:19.757Z,20.84
2018-07-10T01:05:19.747Z,20.88
2018-07-10T01:06:19.509Z,20.92
2018-07-10T01:07:19.762Z,20.9
2018-07-10T01:08:19.252Z,20.82
2018-07-10T01:09:19.777Z,20.84
2018-07-10T01:10:19.508Z,20.92
2018-07-10T01:11:19.767Z,20.82
2018-07-10T01:12:19.777Z,20.82
2018-07-10T01:13:19.295Z,20.82
2018-07-10T01:14:19.515Z,20.81
2018-07-10T01:15:19.768Z,20.87
2018-07-10T01:16:19.529Z,20.82
2018-07-10T01:17:19.521Z,20.81
2018-07-10T01:18:19.521Z,20.8
2018-07-10T01:19:19.537Z,20.72
2018-07-10T01:20:19.278Z,20.72
2018-07-10T01:21:19.539Z,20.69
2018-07-10T01:22:19.554Z,20.77
2018-07-10T01:23:19.779Z,20.69
2018-07-10T01:24:19.790Z,20.72
2018-07-10T01:25:19.790Z,20.7
2018-07-10T01:26:19.534Z,20.69
2018-07-10T01:27:19.808Z,20.69
2018-07-10T01:28:19.543Z,20.8
2018-07-10T01:29:19.544Z,20.72
2018-07-10T01:30:19.806Z,20.72
2018-07-10T01:31:19.550Z,20.74
2018-07-10T01:32:19.546Z,20.75
2018-07-10T01:33:19.822Z,20.69
2018-07-10T01:34:19.304Z,20.69
2018-07-10T01:35:19.807Z,20.67
2018-07-10T01:36:19.313Z,20.69
2018-07-10T01:37:19.303Z,20.67
2018-07-10T01:38:19.810Z,20.55
2018-07-10T01:39:19.562Z,20.65
2018-07-10T01:40:19.311Z,20.58
2018-07-10T01:41:19.593Z,20.56
2018-07-10T01:42:19.322Z,20.55
2018-07-10T01:43:19.720Z,20.47
2018-07-10T01:44:19.564Z,20.44
2018-07-10T01:45:19.569Z,20.44
2018-07-10T01:46:19.824Z,20.47
2018-07-10T01:47:19.567Z,20.41
2018-07-10T01:48:19.577Z,20.43
2018-07-10T01:49:19.847Z,20.43
2018-07-10T01:50:19.599Z,20.5
2018-07-10T01:51:19.833Z,20.41
2018-07-10T01:52:19.341Z,20.43
2018-07-10T01:53:19.591Z,20.43
2018-07-10T01:54:19.840Z,20.48
2018-07-10T01:55:19.593Z,20.5
2018-07-10T01:56:19.585Z,20.4
2018-07-10T01:57:19.611Z,20.39
2018-07-10T01:58:19.608Z,20.41
2018-07-10T01:59:19.847Z,20.41
2018-07-10T02:00:19.849Z,20.34
2018-07-10T02:01:19.841Z,20.34
2018-07-10T02:02:19.593Z,20.36
2018-07-10T02:03:19.852Z,20.34
2018-07-10T02:04:19.850Z,20.39
2018-07-10T02:05:19.602Z,20.37
2018-07-10T02:06:19.857Z,20.26
2018-07-10T02:07:19.350Z,20.29
2018-07-10T02:08:19.864Z,20.28
2018-07-10T02:09:19.883Z,20.21
2018-07-10T02:10:19.878Z,20.22
2018-07-10T02:11:19.868Z,20.19
2018-07-10T02:12:19.881Z,20.25
2018-07-10T02:13:19.867Z,20.14
2018-07-10T02:14:19.616Z,20.18
2018-07-10T02:15:19.624Z,20.13
2018-07-10T02:16:19.870Z,20.13
2018-07-10T02:17:19.633Z,20.11
2018-07-10T02:18:19.380Z,20.07
2018-07-10T02:19:19.932Z,20.02
2018-07-10T02:20:19.621Z,20.1
2018-07-10T02:21:19.390Z,20.03
2018-07-10T02:22:19.881Z,20.02
2018-07-10T02:23:19.896Z,20.02
2018-07-10T02:24:19.881Z,20.03
2018-07-10T02:25:19.891Z,20.09
2018-07-10T02:26:19.374Z,20.04
2018-07-10T02:27:19.641Z,19.99
2018-07-10T02:28:19.636Z,20
2018-07-10T02:29:19.649Z,19.99
2018-07-10T02:30:19.907Z,20
2018-07-10T02:31:19.897Z,19.96
2018-07-10T02:32:19.900Z,19.94
2018-07-10T02:33:19.900Z,19.96
2018-07-10T02:34:19.899Z,19.96
2018-07-10T02:35:19.898Z,19.94
2018-07-10T02:36:19.677Z,19.96
2018-07-10T02:37:19.914Z,19.85
2018-07-10T02:38:19.715Z,19.91
2018-07-10T02:39:19.908Z,19.84
2018-07-10T02:40:19.727Z,19.85
2018-07-10T02:41:19.910Z,19.84
2018-07-10T02:42:19.916Z,19.82
2018-07-10T02:43:19.908Z,19.81
2018-07-10T02:44:19.499Z,19.88
2018-07-10T02:45:19.675Z,19.77
2018-07-10T02:46:19.925Z,19.74
2018-07-10T02:47:19.427Z,19.76
2018-07-10T02:48:19.695Z,19.71
2018-07-10T02:49:19.922Z,19.62
2018-07-10T02:50:19.949Z,19.66
2018-07-10T02:51:19.689Z,19.69
2018-07-10T02:52:19.447Z,19.71
2018-07-10T02:53:19.925Z,19.74
2018-07-10T02:54:19.950Z,19.74
2018-07-10T02:55:19.682Z,19.74
2018-07-10T02:56:19.949Z,19.73
2018-07-10T02:57:19.938Z,19.69
2018-07-10T02:58:19.682Z,19.73
2018-07-10T02:59:19.640Z,19.69
2018-07-10T03:00:19.952Z,19.7
2018-07-10T03:01:19.964Z,19.69
2018-07-10T03:02:19.935Z,19.67
2018-07-10T03:03:19.959Z,19.67
2018-07-10T03:04:19.699Z,19.66
2018-07-10T03:05:19.958Z,19.69
2018-07-10T03:06:19.689Z,19.67
2018-07-10T03:07:19.953Z,19.71
2018-07-10T03:08:19.965Z,19.69
2018-07-10T03:09:19.698Z,19.71
2018-07-10T03:10:19.956Z,19.71
2018-07-10T03:11:19.699Z,19.62
2018-07-10T03:12:19.699Z,19.7
2018-07-10T03:13:20.524Z,19.63
2018-07-10T03:14:19.956Z,19.59
2018-07-10T03:15:19.966Z,19.56
2018-07-10T03:16:19.975Z,19.49
2018-07-10T03:17:19.472Z,19.62
2018-07-10T03:18:19.972Z,19.62
2018-07-10T03:19:19.973Z,19.59
2018-07-10T03:20:19.478Z,19.49
2018-07-10T03:21:19.756Z,19.66
2018-07-10T03:22:19.724Z,19.56
2018-07-10T03:23:19.737Z,19.55
2018-07-10T03:24:19.723Z,19.58
2018-07-10T03:25:19.977Z,19.66
2018-07-10T03:26:19.478Z,19.55
2018-07-10T03:27:20.026Z,19.49
2018-07-10T03:28:19.722Z,19.55
2018-07-10T03:29:19.727Z,19.63
2018-07-10T03:30:19.974Z,19.49
2018-07-10T03:31:19.987Z,19.52
2018-07-10T03:32:19.992Z,19.54
2018-07-10T03:33:19.773Z,19.58
2018-07-10T03:34:19.736Z,19.51
2018-07-10T03:35:19.746Z,19.48
2018-07-10T03:36:20.042Z,19.55
2018-07-10T03:37:19.743Z,19.59
2018-07-10T03:38:19.740Z,19.63
2018-07-10T03:39:19.736Z,19.55
2018-07-10T03:40:19.988Z,19.48
2018-07-10T03:41:19.745Z,19.48
2018-07-10T03:42:20.023Z,19.62
2018-07-10T03:43:19.762Z,19.62
2018-07-10T03:44:20.001Z,19.64
2018-07-10T03:45:19.994Z,19.64
2018-07-10T03:46:19.752Z,19.7
2018-07-10T03:47:19.782Z,19.7
2018-07-10T03:48:19.771Z,19.74
2018-07-10T03:49:19.744Z,19.74
2018-07-10T03:50:20.011Z,19.73
2018-07-10T03:51:20.012Z,19.79
2018-07-10T03:52:19.759Z,19.7
2018-07-10T03:53:20.023Z,19.77
2018-07-10T03:54:19.765Z,19.77
2018-07-10T03:55:19.998Z,19.82
2018-07-10T03:56:20.017Z,19.85
2018-07-10T03:57:19.777Z,19.81
2018-07-10T03:58:20.009Z,19.81
2018-07-10T03:59:19.534Z,19.82
2018-07-10T04:00:19.769Z,19.89
2018-07-10T04:01:19.782Z,19.92
2018-07-10T04:02:20.017Z,19.94
2018-07-10T04:03:20.037Z,19.94
2018-07-10T04:04:20.033Z,19.79
2018-07-10T04:05:19.773Z,19.79
2018-07-10T04:06:19.526Z,19.82
2018-07-10T04:07:20.028Z,19.84
2018-07-10T04:08:20.034Z,19.85
2018-07-10T04:09:19.795Z,19.86
2018-07-10T04:10:20.052Z,19.96
2018-07-10T04:11:20.036Z,19.92
2018-07-10T04:12:20.200Z,20.02
2018-07-10T04:13:19.778Z,20
2018-07-10T04:14:19.780Z,20
2018-07-10T04:15:19.535Z,20
2018-07-10T04:16:19.791Z,20.03
2018-07-10T04:17:19.815Z,20.03
2018-07-10T04:18:19.790Z,20.07
2018-07-10T04:19:19.797Z,20.06
2018-07-10T04:20:20.052Z,20.16
2018-07-10T04:21:20.096Z,20.13
2018-07-10T04:22:20.052Z,20.11
2018-07-10T04:23:19.560Z,20.25
2018-07-10T04:24:20.074Z,20.24
2018-07-10T04:25:19.812Z,20.32
2018-07-10T04:26:19.562Z,20.26
2018-07-10T04:27:19.557Z,20.31
2018-07-10T04:28:19.814Z,20.37
2018-07-10T04:29:19.555Z,20.41
2018-07-10T04:30:20.071Z,20.39
2018-07-10T04:31:20.066Z,20.39
2018-07-10T04:32:20.081Z,20.41
2018-07-10T04:33:19.819Z,20.39
2018-07-10T04:34:19.819Z,20.48
2018-07-10T04:35:19.820Z,20.37
2018-07-10T04:36:19.831Z,20.43
2018-07-10T04:37:20.074Z,20.41
2018-07-10T04:38:19.829Z,20.58
2018-07-10T04:39:19.821Z,20.55
2018-07-10T04:40:19.840Z,20.62
2018-07-10T04:41:20.087Z,20.63
2018-07-10T04:42:20.240Z,20.65
2018-07-10T04:43:19.831Z,20.69
2018-07-10T04:44:20.104Z,20.75
2018-07-10T04:45:19.853Z,20.77
2018-07-10T04:46:19.584Z,20.7
2018-07-10T04:47:20.095Z,20.72
2018-07-10T04:48:19.590Z,20.72
2018-07-10T04:49:20.278Z,20.74
2018-07-10T04:50:20.109Z,20.74
2018-07-10T04:51:20.107Z,20.69
2018-07-10T04:52:20.109Z,20.74
2018-07-10T04:53:20.109Z,20.78
2018-07-10T04:54:20.107Z,20.77
2018-07-10T04:55:19.866Z,20.78
2018-07-10T04:56:20.107Z,20.72
2018-07-10T04:57:20.106Z,20.85
2018-07-10T04:58:19.878Z,20.84
2018-07-10T04:59:20.119Z,20.82
2018-07-10T05:00:20.178Z,20.8
2018-07-10T05:01:20.125Z,20.75
2018-07-10T05:02:19.869Z,20.84
2018-07-10T05:03:19.869Z,20.74
2018-07-10T05:04:19.612Z,20.75
2018-07-10T05:05:19.633Z,20.69
2018-07-10T05:06:19.879Z,20.65
2018-07-10T05:07:19.883Z,20.56
2018-07-10T05:08:20.151Z,20.55
2018-07-10T05:09:20.142Z,20.6
2018-07-10T05:10:19.881Z,20.65
2018-07-10T05:11:20.142Z,20.74
2018-07-10T05:12:19.881Z,20.75
2018-07-10T05:13:19.892Z,20.72
2018-07-10T05:14:20.139Z,20.81
2018-07-10T05:15:19.894Z,20.81
2018-07-10T05:16:20.146Z,20.87
2018-07-10T05:17:19.891Z,20.82
2018-07-10T05:18:19.645Z,20.88
2018-07-10T05:19:19.905Z,20.9
2018-07-10T05:20:19.650Z,20.95
2018-07-10T05:21:19.647Z,21
2018-07-10T05:22:19.908Z,20.99
2018-07-10T05:23:19.667Z,20.99
2018-07-10T05:24:20.164Z,21.02
2018-07-10T05:25:20.188Z,20.99
2018-07-10T05:26:19.915Z,21.02
2018-07-10T05:27:20.160Z,21.02
2018-07-10T05:28:19.917Z,20.97
2018-07-10T05:29:20.169Z,21.03
2018-07-10T05:30:20.169Z,20.99
2018-07-10T05:31:19.920Z,21.05
2018-07-10T05:32:19.918Z,21.06
2018-07-10T05:33:20.189Z,21.02
2018-07-10T05:34:19.925Z,21.02
2018-07-10T05:35:20.171Z,21
2018-07-10T05:36:20.190Z,20.99
2018-07-10T05:37:20.455Z,21.05
2018-07-10T05:38:20.196Z,21
2018-07-10T05:39:19.985Z,20.95
2018-07-10T05:40:19.948Z,21.02
2018-07-10T05:41:19.943Z,21.06
2018-07-10T05:42:19.949Z,21
2018-07-10T05:43:23.304Z,21.03
2018-07-10T05:44:19.946Z,21.02
2018-07-10T05:45:19.952Z,20.9
2018-07-10T05:46:20.269Z,20.88
2018-07-10T05:47:20.208Z,20.93
2018-07-10T05:48:20.207Z,20.81
2018-07-10T05:49:20.426Z,20.88
2018-07-10T05:50:20.213Z,20.84
2018-07-10T05:51:20.263Z,20.88
2018-07-10T05:52:19.716Z,20.9
2018-07-10T05:53:20.217Z,20.96
2018-07-10T05:54:20.226Z,20.9
2018-07-10T05:55:19.721Z,20.88
2018-07-10T05:56:19.973Z,20.93
2018-07-10T05:57:20.234Z,20.88
2018-07-10T05:58:20.320Z,20.78
2018-07-10T05:59:19.978Z,20.77
2018-07-10T06:00:20.001Z,20.85
2018-07-10T06:01:20.255Z,20.85
2018-07-10T06:02:20.234Z,20.93
2018-07-10T06:03:19.987Z,20.92
2018-07-10T06:04:20.266Z,20.92
2018-07-10T06:05:19.744Z,20.9
2018-07-10T06:06:20.259Z,20.93
2018-07-10T06:07:20.256Z,20.93
2018-07-10T06:08:20.002Z,20.88
2018-07-10T06:09:20.256Z,20.95
2018-07-10T06:10:20.277Z,20.97
2018-07-10T06:11:20.008Z,20.99
2018-07-10T06:12:20.262Z,21.07
2018-07-10T06:13:20.258Z,21.11
2018-07-10T06:14:20.003Z,21.17
2018-07-10T06:23:46.101Z,21.32
2018-07-10T06:24:45.847Z,21.22
2018-07-10T06:25:45.874Z,21.25
2018-07-10T06:26:46.096Z,21.32
2018-07-10T06:27:45.837Z,21.37
2018-07-10T06:28:46.108Z,21.36
2018-07-10T06:29:45.844Z,21.5
2018-07-10T06:30:46.116Z,21.54
2018-07-10T06:31:46.090Z,21.54
2018-07-10T06:32:46.098Z,21.46
2018-07-10T06:33:46.109Z,21.45
2018-07-10T06:34:46.109Z,21.46
2018-07-10T06:35:45.855Z,21.35
2018-07-10T06:36:46.107Z,21.22
2018-07-10T06:37:45.858Z,21.22
2018-07-10T06:38:46.111Z,21.37
2018-07-10T06:39:45.979Z,21.22
2018-07-10T06:40:45.983Z,21.27
2018-07-10T06:41:46.120Z,21.25
2018-07-10T06:42:46.120Z,21.18
2018-07-10T06:43:46.117Z,21.2
2018-07-10T06:44:45.622Z,21.15
2018-07-10T06:45:45.905Z,21.11
2018-07-10T06:46:46.142Z,21.2
2018-07-10T06:47:45.679Z,21.27
2018-07-10T06:48:46.429Z,21.27
2018-07-10T06:49:46.137Z,21.27
2018-07-10T06:50:45.873Z,21.29
2018-07-10T06:51:45.891Z,21.24
2018-07-10T06:52:46.260Z,21.42
2018-07-10T06:53:46.564Z,21.4
2018-07-10T06:54:46.140Z,21.43
2018-07-10T06:55:46.250Z,21.43
2018-07-10T06:56:45.894Z,21.54
2018-07-10T06:57:46.148Z,21.58
2018-07-10T06:58:45.645Z,21.62
2018-07-10T06:59:46.147Z,21.64
2018-07-10T07:00:45.849Z,21.72
2018-07-10T07:01:45.928Z,21.69
2018-07-10T07:02:45.912Z,21.72
2018-07-10T07:03:45.651Z,21.66
2018-07-10T07:04:45.657Z,21.58
2018-07-10T07:05:45.997Z,21.55
2018-07-10T07:06:45.926Z,21.52
2018-07-10T07:07:46.077Z,21.46
2018-07-10T07:08:45.930Z,21.36
2018-07-10T07:09:46.180Z,21.36
2018-07-10T07:10:45.710Z,21.24
2018-07-10T07:11:46.183Z,21.25
2018-07-10T07:12:45.677Z,21.11
2018-07-10T07:13:49.162Z,21
2018-07-10T07:14:45.701Z,20.97
2018-07-10T07:15:45.735Z,20.93
2018-07-10T07:16:45.949Z,20.95
2018-07-10T07:17:45.722Z,20.97
2018-07-10T07:18:46.219Z,21.05
2018-07-10T07:19:45.693Z,21.11
2018-07-10T07:20:46.207Z,21.09
2018-07-10T07:21:46.215Z,21.12
2018-07-10T07:22:45.721Z,21.06
2018-07-10T07:23:46.354Z,20.99
2018-07-10T07:24:46.215Z,21.03
2018-07-10T07:25:46.023Z,21.02
2018-07-10T07:26:46.218Z,21.05
2018-07-10T07:27:45.974Z,21.12
2018-07-10T07:28:45.968Z,21.14
2018-07-10T07:29:45.976Z,21.27
2018-07-10T07:30:45.975Z,21.24
2018-07-10T07:31:46.271Z,21.35
2018-07-10T07:32:45.993Z,21.22
2018-07-10T07:33:46.247Z,21.12
2018-07-10T07:34:45.990Z,21.02
2018-07-10T07:35:46.003Z,20.92
2018-07-10T07:36:45.990Z,20.85
2018-07-10T07:37:45.994Z,20.81
2018-07-10T07:38:45.735Z,20.78
2018-07-10T07:39:45.993Z,20.66
2018-07-10T07:40:45.990Z,20.63
2018-07-10T07:41:46.274Z,20.51
2018-07-10T07:42:46.252Z,20.52
2018-07-10T07:43:45.780Z,20.37
2018-07-10T07:44:46.053Z,20.34
2018-07-10T07:45:46.079Z,20.36
2018-07-10T07:46:46.005Z,20.37
2018-07-10T07:47:46.245Z,20.28
2018-07-10T07:48:46.257Z,20.43
2018-07-10T07:49:46.268Z,20.36
2018-07-10T07:50:46.285Z,20.39
2018-07-10T07:51:46.262Z,20.51
2018-07-10T07:52:45.763Z,20.59
2018-07-10T07:53:45.763Z,20.66
2018-07-10T07:54:46.023Z,20.74
2018-07-10T07:55:46.023Z,20.8
2018-07-10T07:56:46.285Z,20.84
2018-07-10T07:57:46.039Z,20.87
2018-07-10T07:58:46.315Z,20.85
2018-07-10T07:59:46.283Z,20.88
2018-07-10T08:00:46.299Z,20.75
2018-07-10T08:01:46.274Z,20.77
2018-07-10T08:02:46.284Z,20.65
2018-07-10T08:03:46.030Z,20.74
2018-07-10T08:04:46.294Z,20.77
2018-07-10T08:05:46.357Z,20.72
2018-07-10T08:06:46.310Z,20.7
2018-07-10T08:07:46.057Z,20.82
2018-07-10T08:08:46.304Z,20.82
2018-07-10T08:09:46.291Z,20.88
2018-07-10T08:10:46.054Z,20.99
2018-07-10T08:11:46.297Z,21.09
2018-07-10T08:12:46.054Z,21.21
2018-07-10T08:13:45.808Z,21.24
2018-07-10T08:14:46.065Z,21.3
2018-07-10T08:15:45.902Z,21.37
2018-07-10T08:16:46.061Z,21.52
2018-07-10T08:17:45.813Z,21.62
2018-07-10T08:18:45.813Z,21.72
2018-07-10T08:19:46.332Z,21.76
2018-07-10T08:20:46.126Z,21.92
2018-07-10T08:21:45.831Z,21.88
2018-07-10T08:22:46.330Z,21.83
2018-07-10T08:23:46.331Z,21.85
2018-07-10T08:24:46.339Z,21.79
2018-07-10T08:25:46.336Z,21.95
2018-07-10T08:26:46.341Z,21.98
2018-07-10T08:27:45.844Z,21.99
2018-07-10T08:28:46.355Z,21.93
2018-07-10T08:29:46.378Z,22.08
2018-07-10T08:30:46.404Z,22.08
2018-07-10T08:31:46.103Z,22.17
2018-07-10T08:32:46.106Z,22.25
2018-07-10T08:33:46.419Z,22.32
2018-07-10T08:34:46.359Z,22.33
2018-07-10T08:35:46.368Z,22.47
2018-07-10T08:36:46.380Z,22.5
2018-07-10T08:37:46.396Z,22.44
2018-07-10T08:38:46.384Z,22.54
2018-07-10T08:39:46.376Z,22.55
2018-07-10T08:40:46.439Z,22.66
2018-07-10T08:41:46.140Z,22.69
2018-07-10T08:42:45.888Z,22.75
2018-07-10T08:43:46.391Z,23.02
2018-07-10T08:44:46.382Z,23.03
2018-07-10T08:45:46.217Z,23.13
2018-07-10T08:46:46.147Z,23.46
2018-07-10T08:47:46.141Z,23.56
2018-07-10T08:48:46.460Z,23.39
2018-07-10T08:49:46.412Z,23.44
2018-07-10T08:50:46.222Z,23.55
2018-07-10T08:51:46.165Z,23.91
2018-07-10T08:52:46.427Z,24.03
2018-07-10T08:53:46.182Z,24.01
2018-07-10T08:54:46.188Z,23.99
2018-07-10T08:55:46.261Z,23.99
2018-07-10T08:56:46.455Z,23.92
2018-07-10T08:57:46.452Z,23.99
2018-07-10T08:58:46.452Z,24.08
2018-07-10T08:59:46.560Z,24.17
2018-07-10T09:00:46.230Z,24.14
2018-07-10T09:01:46.462Z,24.13
2018-07-10T09:02:46.223Z,24.08
2018-07-10T09:03:46.473Z,24.21
2018-07-10T09:04:46.474Z,24.17
2018-07-10T09:05:46.266Z,24.38
2018-07-10T09:06:46.222Z,24.57
2018-07-10T09:07:46.234Z,24.74
2018-07-10T09:08:46.498Z,24.84
2018-07-10T09:09:46.492Z,24.81
2018-07-10T09:10:46.511Z,24.84
2018-07-10T09:11:46.498Z,24.8
2018-07-10T09:12:46.510Z,24.73
2018-07-10T09:13:46.587Z,24.45
2018-07-10T09:14:47.880Z,24.16
2018-07-10T09:15:46.098Z,24.06
2018-07-10T09:16:46.280Z,24.11
2018-07-10T09:17:46.528Z,24.13
2018-07-10T09:18:46.543Z,24.08
2018-07-10T09:19:46.554Z,24.1
2018-07-10T09:20:46.556Z,24.18
2018-07-10T09:21:46.570Z,24.3
2018-07-10T09:22:46.299Z,24.5
2018-07-10T09:23:46.571Z,24.81
2018-07-10T09:24:46.568Z,24.91
2018-07-10T09:25:46.357Z,25.06
2018-07-10T09:26:46.585Z,25.18
2018-07-10T09:27:46.588Z,25.04
2018-07-10T09:28:46.326Z,24.91
2018-07-10T09:29:46.334Z,24.86
2018-07-10T09:30:46.670Z,24.7
2018-07-10T09:31:46.353Z,24.33
2018-07-10T09:32:46.615Z,24.11
2018-07-10T09:33:46.166Z,23.66
2018-07-10T09:34:46.608Z,23.37
2018-07-10T09:35:46.407Z,23.02
2018-07-10T09:36:46.124Z,22.55
2018-07-10T09:37:46.440Z,22.33
2018-07-10T09:38:46.686Z,22.2
2018-07-10T09:39:46.428Z,22.22
2018-07-10T09:40:46.162Z,22.08
2018-07-10T09:41:46.642Z,21.96
2018-07-10T09:42:46.406Z,21.69
2018-07-10T09:43:46.140Z,21.61
2018-07-10T09:44:46.659Z,21.5
2018-07-10T09:45:46.749Z,21.5
2018-07-10T09:46:46.749Z,21.45
2018-07-10T09:47:46.410Z,21.29
2018-07-10T09:48:46.669Z,21.22
2018-07-10T09:49:46.665Z,21
2018-07-10T09:50:46.438Z,20.95
2018-07-10T09:51:46.431Z,20.87
2018-07-10T09:52:46.678Z,20.69
2018-07-10T09:53:46.196Z,20.72
2018-07-10T09:54:46.979Z,20.66
2018-07-10T09:55:46.441Z,20.69
2018-07-10T09:56:46.684Z,20.66
2018-07-10T09:57:46.463Z,20.72
2018-07-10T09:58:46.446Z,20.84
2018-07-10T09:59:46.483Z,20.85
2018-07-10T10:00:46.464Z,20.85
2018-07-10T10:01:46.718Z,21
2018-07-10T10:02:46.450Z,21.03
2018-07-10T10:03:46.473Z,21.22
2018-07-10T10:04:46.455Z,21.39
2018-07-10T10:05:46.517Z,21.45
2018-07-10T10:06:46.713Z,21.51
2018-07-10T10:07:46.464Z,21.64
2018-07-10T10:08:46.475Z,21.6
2018-07-10T10:09:46.468Z,21.73
2018-07-10T10:10:46.810Z,21.69
2018-07-10T10:11:46.494Z,21.91
2018-07-10T10:12:46.730Z,22.06
2018-07-10T10:13:46.726Z,22.38
2018-07-10T10:14:46.627Z,22.76
2018-07-10T10:15:46.838Z,22.99
2018-07-10T10:16:46.237Z,23.25
2018-07-10T10:17:46.514Z,23.34
2018-07-10T10:18:46.497Z,23.44
2018-07-10T10:19:46.502Z,23.59
2018-07-10T10:20:46.252Z,23.68
2018-07-10T10:21:46.256Z,23.63
2018-07-10T10:22:46.770Z,23.46
2018-07-10T10:54:46.078Z,22.22
2018-07-10T10:55:46.100Z,22.04
2018-07-10T10:56:45.588Z,21.98
2018-07-10T10:57:45.826Z,21.95
2018-07-10T10:58:45.586Z,21.85
2018-07-10T10:59:46.085Z,21.77
2018-07-10T11:00:45.904Z,21.8
2018-07-10T11:01:45.846Z,21.79
2018-07-10T11:02:46.286Z,21.67
2018-07-10T11:03:46.097Z,21.55
2018-07-10T11:04:46.101Z,21.35
2018-07-10T11:05:46.186Z,21.33
2018-07-10T11:06:45.835Z,21.37
2018-07-10T11:07:45.847Z,21.35
2018-07-10T11:08:46.095Z,21.37
2018-07-10T11:09:46.098Z,21.37
2018-07-10T11:10:45.960Z,21.35
2018-07-10T11:11:45.602Z,21.24
2018-07-10T11:12:46.112Z,21.17
2018-07-10T11:13:45.853Z,21.06
2018-07-10T11:14:46.105Z,20.93
2018-07-10T11:15:45.606Z,20.78
2018-07-10T11:16:45.861Z,20.75
2018-07-10T11:17:45.608Z,20.74
2018-07-10T11:18:45.891Z,20.78
2018-07-10T11:19:45.859Z,20.74
2018-07-10T11:20:45.890Z,20.72
2018-07-10T11:21:45.888Z,20.65
2018-07-10T11:22:45.887Z,20.6
2018-07-10T11:23:45.886Z,20.55
2018-07-10T11:24:45.627Z,20.41
2018-07-10T11:25:46.178Z,20.5
2018-07-10T11:26:45.908Z,20.4
2018-07-10T11:27:45.627Z,20.52
2018-07-10T11:28:45.919Z,20.37
2018-07-10T11:29:46.143Z,20.37
2018-07-10T11:30:46.193Z,20.34
2018-07-10T11:31:45.909Z,20.37
2018-07-10T11:32:46.153Z,20.39
2018-07-10T11:33:45.659Z,20.24
2018-07-10T11:34:45.647Z,20.37
2018-07-10T11:35:45.920Z,20.14
2018-07-10T11:36:45.912Z,20.11
2018-07-10T11:37:45.928Z,19.94
2018-07-10T11:38:45.906Z,19.95
2018-07-10T11:39:45.907Z,19.84
2018-07-10T11:40:45.951Z,19.92
2018-07-10T11:41:45.915Z,19.95
2018-07-10T11:42:45.919Z,20
2018-07-10T11:43:45.664Z,20.06
2018-07-10T11:44:45.663Z,20.06
2018-07-10T11:45:46.385Z,19.91
2018-07-10T11:46:45.918Z,19.92
2018-07-10T11:47:45.929Z,19.94
2018-07-10T11:48:46.179Z,20.03
2018-07-10T11:49:45.922Z,20.25
2018-07-10T11:50:46.035Z,20.34
2018-07-10T11:51:46.366Z,20.47
2018-07-10T11:52:45.952Z,20.56
2018-07-10T11:53:45.960Z,20.69
2018-07-10T11:54:46.189Z,20.9
2018-07-10T11:55:46.018Z,20.95
2018-07-10T11:56:46.197Z,20.88
2018-07-10T11:57:46.204Z,21.02
2018-07-10T11:58:45.951Z,21.12
2018-07-10T11:59:45.961Z,21.29
2018-07-10T12:00:46.267Z,21.5
2018-07-10T12:01:46.216Z,21.6
2018-07-10T12:02:45.974Z,21.89
2018-07-10T12:03:45.970Z,22.02
2018-07-10T12:04:46.773Z,22.07
2018-07-10T12:05:46.058Z,22.26
2018-07-10T12:06:46.232Z,22.22
2018-07-10T12:07:45.978Z,22.28
2018-07-10T12:08:46.222Z,22.26
2018-07-10T12:09:46.236Z,22.25
2018-07-10T12:10:45.794Z,21.96
2018-07-10T12:11:46.244Z,21.85
2018-07-10T12:12:46.558Z,21.73
2018-07-10T12:13:46.248Z,21.69
2018-07-10T12:14:45.759Z,21.6
2018-07-10T12:15:46.367Z,21.67
2018-07-10T12:16:46.020Z,21.55
2018-07-10T12:17:46.272Z,21.58
2018-07-10T12:18:46.260Z,21.69
2018-07-10T12:19:46.271Z,21.57
2018-07-10T12:20:46.436Z,21.67
2018-07-10T12:21:46.031Z,21.72
2018-07-10T12:22:46.278Z,21.96
2018-07-10T12:23:46.295Z,22.13
2018-07-10T12:24:46.033Z,22.23
2018-07-10T12:25:46.133Z,22.39
2018-07-10T12:26:46.044Z,22.47
2018-07-10T12:27:46.036Z,22.72
2018-07-10T12:28:46.288Z,23.02
2018-07-10T12:29:46.292Z,23.32
2018-07-10T12:30:46.134Z,23.2
2018-07-10T12:31:46.058Z,23.06
2018-07-10T12:32:46.088Z,23.1
2018-07-10T12:33:45.808Z,23.15
2018-07-10T12:34:46.131Z,23.2
2018-07-10T12:35:46.129Z,23.18
2018-07-10T12:36:46.086Z,23.36
2018-07-10T12:37:45.829Z,23.48
2018-07-10T12:38:46.092Z,23.55
2018-07-10T12:39:46.337Z,23.66
2018-07-10T12:40:46.121Z,23.74
2018-07-10T12:41:46.625Z,23.95
2018-07-10T12:42:46.087Z,24.01
2018-07-10T12:43:46.355Z,23.65
2018-07-10T12:44:45.863Z,23.5
2018-07-10T12:45:46.410Z,23.18
2018-07-10T12:46:46.375Z,23.02
2018-07-10T12:47:46.116Z,22.75
2018-07-10T12:48:46.373Z,22.51
2018-07-10T12:49:46.375Z,22.53
2018-07-10T12:50:45.919Z,22.6
2018-07-10T12:51:45.882Z,22.59
2018-07-10T12:52:45.872Z,22.7
2018-07-10T12:53:46.164Z,22.88
2018-07-10T12:54:46.154Z,22.8
2018-07-10T12:55:46.143Z,22.8
2018-07-10T12:56:46.401Z,22.8
2018-07-10T12:57:46.148Z,22.8
2018-07-10T12:58:46.153Z,22.76
2018-07-10T12:59:45.903Z,22.65
2018-07-10T13:00:46.479Z,22.57
2018-07-10T13:01:46.454Z,22.63
2018-07-10T13:02:45.934Z,22.65
2018-07-10T13:03:46.436Z,22.69
2018-07-10T13:04:46.185Z,22.69
2018-07-10T13:05:46.501Z,22.78
2018-07-10T13:06:46.461Z,22.83
2018-07-10T13:07:46.442Z,22.93
2018-07-10T13:08:46.198Z,22.94
2018-07-10T13:09:45.941Z,22.94
2018-07-10T13:10:46.310Z,22.94
2018-07-10T13:11:46.473Z,22.8
2018-07-10T13:12:46.199Z,22.72
2018-07-10T13:13:45.964Z,22.69
2018-07-10T13:14:46.207Z,22.66
2018-07-10T13:15:46.496Z,22.54
2018-07-10T13:16:46.213Z,22.51
2018-07-10T13:17:46.223Z,22.48
2018-07-10T13:18:46.226Z,22.3
2018-07-10T13:19:46.486Z,22.13
2018-07-10T13:20:46.229Z,22.13
2018-07-10T13:21:46.483Z,22.13
2018-07-10T13:22:46.504Z,22.22
2018-07-10T13:23:46.247Z,22.32
2018-07-10T13:24:46.003Z,22.44
2018-07-10T13:25:46.308Z,22.55
2018-07-10T13:26:46.520Z,22.66
2018-07-10T13:27:46.265Z,22.85
2018-07-10T13:28:46.251Z,22.96
2018-07-10T13:29:46.257Z,22.93
2018-07-10T13:30:46.527Z,23.02
2018-07-10T13:31:46.261Z,22.98
2018-07-10T13:32:46.033Z,22.83
2018-07-10T13:33:46.524Z,22.83
2018-07-10T13:34:46.523Z,22.85
2018-07-10T13:35:46.352Z,22.88